Clover Valley, Nevada Weather observations

Data are for 10 minute period ending at time listed.
 Day   Time   Solar   Ave.   Ave.  Ave.  Vector  Max.   Baro.   Total    
  of    of     Rad.   Air    Rel.  Wind   Wind   Wind  Press.  Precip.   
Year   Day            Temp.  Hum.  Speed  Dir.   Gust                    
2015   (PST)  Kw/m2    F      %     mph   deg.    mph    mb.     in.     
-------------------------------------------------------------------------
  90   18:20   0.00   57.6    13   23.3   274    32.4   820.2    0.00 
  90   18:30   0.00   57.3    13   21.5   280    32.7   820.1    0.00 
  90   18:40   0.00   57.3    13   24.3   282    34.5   820.0    0.00 
  90   18:50   0.00   56.6    14   22.7   282    31.0   820.1    0.00 
  90   19:00   0.00   56.2    14   23.0   288    32.2   820.1    0.00 
  90   19:10   0.00   56.2    14   20.7   291    33.3   820.2    0.00 
  90   19:20   0.00   55.7    14   20.4   298    30.1   820.4    0.00 
  90   19:30   0.00   53.8    19   21.6   310    31.4   820.7    0.00 
  90   19:40   0.00   50.9    29   19.5   322    28.2   821.4    0.00 
  90   19:50   0.00   48.8    36   19.0     3    28.2   822.2    0.00 
  90   20:00   0.00   46.2    47   23.3    18    38.5   822.4    0.00 
  90   20:10   0.00   45.3    51   28.7     8    38.7   822.5    0.00 
  90   20:20   0.00   44.6    53   27.3     9    37.1   822.6    0.00 
  90   20:30   0.00   44.6    52   28.3    12    38.6   822.7    0.00 
  90   20:40   0.00   44.3    53   27.1    26    36.5   823.1    0.00 
  90   20:50   0.00   44.0    53   25.2    30    32.7   823.4    0.00 
  90   21:00   0.00   44.0    53   25.1    35    32.2   823.5    0.00 
  90   21:10   0.00   43.7    53   20.1    36    30.2   824.1    0.00 
  90   21:20   0.00   43.3    53   19.7    26    26.8   824.1    0.00 
  90   21:30   0.00   43.0    53   17.2    18    25.1   824.4    0.00 
  90   21:40   0.00   42.7    54   17.1    25    23.9   824.6    0.00 
  90   21:50   0.00   42.5    53   16.6    16    23.2   824.8    0.00 
  90   22:00   0.00   42.3    52   15.4     8    21.8   825.0    0.00 
  90   22:10   0.00   42.0    51   17.2     7    24.7   825.1    0.00 
  90   22:20   0.00   41.5    51   16.3   354    25.3   825.2    0.00 
  90   22:30   0.00   41.4    51   16.9   359    25.1   825.2    0.00 
  90   22:40   0.00   41.1    51   12.0     9    24.1   825.3    0.00 
  90   22:50   0.00   40.6    52    9.2   351    14.2   825.4    0.00 
  90   23:00   0.00   40.2    51   14.7    17    22.0   825.4    0.00 
  90   23:10   0.00   39.7    52   13.6     6    21.4   825.4    0.00 
  90   23:20   0.00   39.6    51   14.5   357    21.9   825.4    0.00 
  90   23:30   0.00   39.4    51    8.9   334    17.5   825.6    0.00 
  90   23:40   0.00   39.5    49   11.6     2    18.3   825.7    0.00 
  90   23:50   0.00   40.0    45    9.0    11    19.7   825.9    0.00 
  91    0:00   0.00   39.9    44    8.6    22    19.4   826.2    0.00 
  91    0:10   0.00   40.1    42    6.4    59    12.3   826.2    0.00 
  91    0:20   0.00   39.4    44   10.2    28    18.6   826.3    0.00 
  91    0:30   0.00   38.0    47   13.2   341    22.4   826.5    0.00 
  91    0:40   0.00   37.9    46   14.7   322    26.7   826.6    0.00 
  91    0:50   0.00   38.1    43   12.9   330    24.4   826.5    0.00 
  91    1:00   0.00   35.8    50   18.8   342    28.1   826.6    0.00 
  91    1:10   0.00   34.7    52   17.0   335    25.4   827.0    0.00 
  91    1:20   0.00   34.6    51   14.4   331    21.5   827.2    0.00 
  91    1:30   0.00   34.8    50   11.1   313    15.3   827.1    0.00 
  91    1:40   0.00   35.1    50    6.9   258    13.3   827.1    0.00 
  91    1:50   0.00   33.8    56    6.9   271    10.0   827.4    0.00 
  91    2:00   0.00   32.7    57    8.8   288    12.2   827.4    0.00 
  91    2:10   0.00   31.8    61    9.3   272    17.3   827.3    0.00 
  91    2:20   0.00   32.7    55   10.8   287    17.1   827.3    0.00 
  91    2:30   0.00   34.0    48    9.4   288    17.4   827.4    0.00 
  91    2:40   0.00   32.9    57    7.5   251    10.3   827.5    0.00 
  91    2:50   0.00   31.1    63    6.9   246     9.1   827.6    0.00 
  91    3:00   0.00   31.6    58    4.3   309     8.1   827.6    0.00 
  91    3:10   0.00   31.8    57    6.4   287    10.4   827.6    0.00 
  91    3:20   0.00   31.5    61    5.1   261     7.6   827.6    0.00 
  91    3:30   0.00   31.2    60    4.8   253     8.0   827.8    0.00 
  91    3:40   0.00   31.3    58    4.5   285     8.8   827.9    0.00 
  91    3:50   0.00   30.7    62    3.3   247     6.3   828.0    0.00 
  91    4:00   0.00   31.8    58    3.8   266     7.6   828.0    0.00 
  91    4:10   0.00   31.5    56    3.1   279     9.2   828.1    0.00 
  91    4:20   0.00   30.1    57    2.6    71     6.9   828.2    0.00 
  91    4:30   0.00   30.0    59    2.2    99     5.8   828.2    0.00 
  91    4:40   0.00   29.2    61    3.1     7     6.9   828.3    0.00 
  91    4:50   0.00   28.3    62    4.3    49     6.2   828.3    0.00 
  91    5:00   0.00   27.8    62    2.5    68     4.2   828.4    0.00 
  91    5:10   0.00   27.3    64    3.5    75     4.2   828.5    0.00 
  91    5:20   0.00   25.8    64    4.3    78     6.7   828.7    0.00 
  91    5:30   0.01   25.3    67    3.5   102     6.7   828.9    0.00 
  91    5:40   0.02   25.2    67    1.5    52     4.2   829.0    0.00 
  91    5:50   0.04   26.4    64    2.3    84     3.6   829.1    0.00 
  91    6:00   0.07   27.6    62    2.4    84     5.3   829.2    0.00 
  91    6:10   0.10   29.4    59    5.2    59     8.8   829.2    0.00 
  91    6:20   0.13   30.1    58    3.3    35     6.2   829.3    0.00 
  91    6:30   0.16   31.3    56    2.4   357     5.3   829.4    0.00 
  91    6:40   0.18   31.4    55    6.6    17     8.4   829.4    0.00 
  91    6:50   0.21   32.0    53    7.8     9    10.2   829.3    0.00 
  91    7:00   0.25   32.5    51    6.8   355     9.3   829.4    0.00 
  91    7:10   0.28   33.1    50    5.1   337     8.0   829.5    0.00 
  91    7:20   0.31   33.7    49    4.5   348     7.3   829.5    0.00 
  91    7:30   0.35   34.2    48    4.5   359     8.5   829.3    0.00 
  91    7:40   0.38   34.9    46    3.0   296     6.5   829.3    0.00 
  91    7:50   0.41   34.9    48    4.2   267     8.3   829.2    0.00 
  91    8:00   0.44   36.6    44    1.7   263     3.8   829.1    0.00 
  91    8:10   0.47   36.8    43    3.5   274     8.2   829.1    0.00 
  91    8:20   0.50   37.3    39    1.9   217     5.7   829.0    0.00 
  91    8:30   0.46   39.6    37    1.0   294     6.4   829.0    0.00 
  91    8:40   0.56   37.3    40    4.0   290     7.7   829.0    0.00 
  91    8:50   0.59   38.1    35    2.4   262     5.7   828.9    0.00 
  91    9:00   0.61   37.8    34    3.0   336     5.7   828.9    0.00 
  91    9:10   0.63   38.9    32    2.2    12     5.1   828.8    0.00 
  91    9:20   0.66   39.0    29    2.4    48     6.9   828.9    0.00 
  91    9:30   0.68   40.5    27    1.8    22     5.6   828.8    0.00 
  91    9:40   0.71   40.0    26    3.9    34     8.7   828.6    0.00 
  91    9:50   0.73   40.5    24    4.1    37     9.1   828.5    0.00 
  91   10:00   0.75   40.9    24    3.8     6    10.2   828.3    0.00 
  91   10:10   0.76   41.4    23    2.7   338     6.1   828.2    0.00 
  91   10:20   0.78   41.9    25    4.8   250    10.4   828.1    0.00 
  91   10:30   0.79   42.5    22    2.7     5     6.8   827.9    0.00 
  91   10:40   0.81   42.9    20    4.4    98     8.8   827.8    0.00 
  91   10:50   0.80   42.5    20    5.8   312    12.0   827.7    0.00 
  91   11:00   0.79   43.1    18    4.5    38     9.1   827.5    0.00 
  91   11:10   0.79   43.6    17    4.1    22     9.6   827.4    0.00 
  91   11:20   0.85   43.6    18    3.1   333     9.0   827.2    0.00 
  91   11:30   0.85   45.2    20    5.9   340    17.6   827.1    0.00 
  91   11:40   0.87   44.3    19    6.6   343    11.8   827.0    0.00 
  91   11:50   0.85   44.1    18    4.9     5    11.9   826.9    0.00 
  91   12:00   0.85   44.8    20    4.2   330     9.8   826.8    0.00 
  91   12:10   0.80   45.7    17    8.2   167    14.2   826.5    0.00 
  91   12:20   0.82   45.6    17    3.8   122    11.2   826.5    0.00 
  91   12:30   0.78   45.2    18    2.8   161    10.2   826.5    0.00 
  91   12:40   0.80   46.1    18    6.2    56    12.9   826.3    0.00 
  91   12:50   0.79   44.8    18    5.2    35    10.5   826.1    0.00 
  91   13:00   0.78   45.8    20    4.9   291    10.8   826.0    0.00 
  91   13:10   0.75   46.2    17    4.1   336     9.3   825.9    0.00 
  91   13:20   0.73   46.3    16    4.3     1    10.1   825.8    0.00 
  91   13:30   0.45   46.4    16    7.0    31    14.3   825.7    0.00 
  91   13:40   0.44   46.6    17    6.3     8    12.3   825.6    0.00 
  91   13:50   0.62   46.3    16    8.0    15    13.2   825.5    0.00 
  91   14:00   0.62   46.6    16    7.0   327    11.2   825.4    0.00 
  91   14:10   0.58   46.8    15    4.1    27     9.7   825.3    0.00 
  91   14:20   0.47   46.3    15    5.5    75    10.9   825.2    0.00 
  91   14:30   0.44   46.8    15    5.1    32    12.0   825.2    0.00 
  91   14:40   0.39   46.5    16    5.4   345    10.2   825.2    0.00 
  91   14:50   0.39   46.4    15    3.1    17     8.5   825.1    0.00 
  91   15:00   0.36   46.9    15    3.6    71     7.0   825.0    0.00 
  91   15:10   0.38   46.9    16    7.7   334    11.5   824.9    0.00 
  91   15:20   0.32   46.6    16    6.2   318    11.2   824.8    0.00 
  91   15:30   0.32   46.8    16    3.8   286     7.8   824.8    0.00 
  91   15:40   0.32   46.8    16    5.8   302     8.8   824.7    0.00 
  91   15:50   0.26   46.7    16    5.0   300     9.7   824.6    0.00 
  91   16:00   0.21   46.2    15    8.8   348    12.3   824.5    0.00 
  91   16:10   0.17   45.8    15    5.9   312    11.6   824.5    0.00 
  91   16:20   0.15   45.6    15    7.3   338    13.6   824.4    0.00 
  91   16:30   0.15   45.5    15    6.5   343     9.9   824.3    0.00 
  91   16:40   0.12   45.2    14    5.0   350     8.9   824.2    0.00 
  91   16:50   0.10   45.1    15    5.0   342    10.2   824.2    0.00 
  91   17:00   0.08   44.8    15    5.3   321     7.7   824.2    0.00 
  91   17:10   0.07   44.7    14    4.3   342     7.2   824.0    0.00 
  91   17:20   0.05   44.5    14    5.7   353     8.4   823.9    0.00 
  91   17:30   0.01   44.2    15    4.8   344     6.9   823.9    0.00 
  91   17:40   0.02   43.7    16    4.2   336     5.8   823.8    0.00 
  91   17:50   0.01   43.0    18    3.2   328     4.5   823.7    0.00 
  91   18:00   0.01   42.4    19    3.3   350     4.4   823.5    0.00 
  91   18:10   0.00   42.0    19    3.7     3     5.3   823.4    0.00 

Return to Clover Valley graphs page.


Western Regional Climate Center,wrcc@dri.edu